Time;durP1;ratioP1;P1;durP2;ratioP2;P2;SDS_P1;SDS_P2;PMS_P1;PMS_P2;Temp;Humidity;BMP_temperature;BMP_pressure;BME280_temperature;BME280_humidity;BME280_pressure;Samples;Min_cycle;Max_cycle;Signal;HPM_P1;HPM_P2
2021/11/30 00:01:15;;;;;;;22.07;11.33;;;5.10;97.50;;;;;;5119718;28;20023;-84
2021/11/30 00:03:41;;;;;;;18.80;9.77;;;5.10;97.40;;;;;;5120022;28;20046;-84
2021/11/30 00:06:08;;;;;;;18.53;11.67;;;5.10;97.20;;;;;;5122188;28;20023;-86
2021/11/30 00:08:36;;;;;;;27.80;12.77;;;5.10;97.30;;;;;;5122567;28;20020;-82
2021/11/30 00:11:04;;;;;;;19.63;10.30;;;5.10;97.30;;;;;;5087520;28;20368;-85
2021/11/30 00:13:31;;;;;;;21.93;12.00;;;5.20;97.20;;;;;;5121101;28;20535;-84
2021/11/30 00:15:57;;;;;;;18.70;10.90;;;5.20;97.20;;;;;;5119953;28;20467;-85
2021/11/30 00:18:24;;;;;;;21.67;11.27;;;5.20;97.20;;;;;;5102746;28;20046;-84
2021/11/30 00:20:50;;;;;;;21.37;10.43;;;5.20;97.20;;;;;;5119830;28;20057;-84
2021/11/30 00:23:16;;;;;;;24.43;11.67;;;5.10;97.00;;;;;;5120449;28;20130;-84
2021/11/30 00:25:42;;;;;;;19.33;11.17;;;5.10;97.10;;;;;;5121477;28;20051;-84
2021/11/30 00:28:09;;;;;;;18.50;10.70;;;5.10;97.10;;;;;;5121728;28;20042;-84
2021/11/30 00:30:36;;;;;;;17.57;11.13;;;5.10;97.10;;;;;;5104245;28;20140;-82
2021/11/30 00:33:03;;;;;;;22.60;11.90;;;5.10;97.10;;;;;;5119255;28;20111;-83
2021/11/30 00:35:29;;;;;;;19.93;11.43;;;5.10;97.10;;;;;;5099514;28;20024;-84
2021/11/30 00:37:56;;;;;;;19.47;11.93;;;5.00;96.90;;;;;;5116554;28;20051;-82
2021/11/30 00:40:22;;;;;;;23.57;13.33;;;5.00;97.00;;;;;;5118702;28;20390;-84
2021/11/30 00:42:48;;;;;;;22.37;12.27;;;5.00;97.20;;;;;;5119556;28;20028;-83
2021/11/30 00:45:17;;;;;;;19.73;11.73;;;5.00;97.10;;;;;;5103415;28;20074;-84
2021/11/30 00:47:51;;;;;;;21.80;11.77;;;4.90;97.10;;;;;;5121334;28;20028;-84
2021/11/30 00:50:18;;;;;;;17.33;11.53;;;4.90;96.90;;;;;;5121855;28;20073;-84
2021/11/30 00:52:46;;;;;;;22.33;12.17;;;4.90;97.00;;;;;;5123368;28;20041;-84
2021/11/30 00:55:12;;;;;;;20.47;11.10;;;4.90;97.10;;;;;;5124393;28;20024;-84
2021/11/30 00:57:40;;;;;;;20.37;12.37;;;4.90;96.80;;;;;;5123795;28;20031;-81
2021/11/30 01:00:11;;;;;;;21.73;12.43;;;4.90;96.80;;;;;;5124128;28;20059;-85
2021/11/30 01:02:37;;;;;;;20.60;11.50;;;4.80;96.80;;;;;;5125051;28;20032;-81
2021/11/30 01:05:06;;;;;;;17.90;10.70;;;4.90;96.90;;;;;;5124178;28;20040;-84
2021/11/30 01:07:35;;;;;;;16.80;11.07;;;4.90;96.60;;;;;;5131354;28;20030;-83
2021/11/30 01:10:07;;;;;;;17.13;9.57;;;4.90;96.70;;;;;;5132617;28;20036;-86
2021/11/30 01:12:33;;;;;;;17.35;9.15;;;4.90;96.60;;;;;;5124986;28;20532;-85
2021/11/30 01:15:00;;;;;;;15.40;9.73;;;4.90;96.30;;;;;;5122996;28;20035;-82
2021/11/30 01:17:27;;;;;;;16.00;9.03;;;4.90;96.40;;;;;;5121195;28;20049;-84
2021/11/30 01:19:53;;;;;;;15.90;8.53;;;4.90;96.30;;;;;;5119461;28;20038;-84
2021/11/30 01:22:19;;;;;;;14.87;8.20;;;4.90;96.10;;;;;;5102478;28;20043;-82
2021/11/30 01:24:44;;;;;;;15.37;7.57;;;4.90;96.10;;;;;;5120186;28;20063;-82
2021/11/30 01:27:10;;;;;;;17.30;7.50;;;5.00;95.90;;;;;;5119163;28;20027;-83
2021/11/30 01:29:36;;;;;;;14.50;7.77;;;4.90;95.90;;;;;;5118847;28;20383;-82
2021/11/30 01:32:02;;;;;;;14.50;7.40;;;4.90;95.80;;;;;;5098862;28;20028;-82
2021/11/30 01:34:29;;;;;;;14.23;7.23;;;4.90;95.70;;;;;;5116799;28;20076;-83
2021/11/30 01:36:55;;;;;;;14.80;7.50;;;4.90;95.40;;;;;;5118505;28;20067;-83
2021/11/30 01:39:22;;;;;;;16.80;6.80;;;4.90;95.30;;;;;;5118653;28;20046;-82
2021/11/30 01:41:48;;;;;;;12.53;6.47;;;4.90;95.20;;;;;;5121042;28;20122;-83
2021/11/30 01:47:53;;;;;;;17.03;5.77;;;4.90;95.10;;;;;;5122558;28;20383;-82
2021/11/30 01:49:40;;;;;;;17.17;6.07;;;4.80;95.00;;;;;;5112810;28;20359;-82
2021/11/30 01:52:08;;;;;;;12.20;5.20;;;4.80;95.40;;;;;;5126850;28;20087;-85
2021/11/30 01:54:39;;;;;;;14.13;5.37;;;4.80;95.50;;;;;;5123397;28;20028;-80
2021/11/30 01:57:06;;;;;;;12.67;5.90;;;4.80;95.90;;;;;;5120766;28;20075;-82
2021/11/30 01:59:32;;;;;;;12.40;5.40;;;4.70;96.10;;;;;;5102385;28;20420;-83
2021/11/30 02:01:58;;;;;;;12.67;5.50;;;4.80;96.40;;;;;;5119602;28;20130;-82
2021/11/30 02:04:24;;;;;;;12.23;4.53;;;4.70;96.50;;;;;;5103120;28;20118;-81
2021/11/30 02:06:49;;;;;;;15.50;5.23;;;4.70;96.70;;;;;;5103517;28;20118;-81
2021/11/30 02:09:15;;;;;;;14.97;5.33;;;4.60;96.90;;;;;;5120146;28;20485;-83
2021/11/30 02:11:41;;;;;;;17.33;5.10;;;4.60;97.30;;;;;;5085083;28;20529;-80
2021/11/30 02:14:07;;;;;;;10.07;4.40;;;4.60;97.50;;;;;;5118635;28;20059;-81
2021/11/30 02:16:32;;;;;;;11.90;4.73;;;4.60;97.60;;;;;;5119134;28;20088;-81
2021/11/30 02:19:02;;;;;;;10.17;5.10;;;4.60;97.80;;;;;;5118725;28;20023;-81
2021/11/30 02:21:33;;;;;;;14.47;5.73;;;4.50;97.90;;;;;;5117257;28;20050;-78
2021/11/30 02:23:59;;;;;;;11.33;5.50;;;4.50;98.00;;;;;;5118216;28;20028;-81
2021/11/30 02:26:30;;;;;;;12.63;5.63;;;4.50;98.20;;;;;;5118269;28;20508;-81
2021/11/30 02:28:57;;;;;;;15.87;7.10;;;4.50;98.40;;;;;;5117152;28;20031;-76
2021/11/30 02:31:26;;;;;;;14.80;6.63;;;4.50;98.70;;;;;;5117120;28;20020;-77
2021/11/30 02:33:52;;;;;;;13.50;6.57;;;4.40;98.80;;;;;;5115761;28;20016;-77
2021/11/30 02:36:28;;;;;;;17.37;7.60;;;4.40;98.90;;;;;;5098526;28;20055;-79
2021/11/30 02:38:55;;;;;;;14.17;7.07;;;4.40;99.00;;;;;;5117641;28;20043;-78
2021/11/30 02:41:22;;;;;;;19.43;8.57;;;4.40;99.30;;;;;;5098211;28;20122;-79
2021/11/30 02:43:48;;;;;;;17.87;7.93;;;4.40;99.40;;;;;;5115965;28;20536;-79
2021/11/30 02:46:36;;;;;;;16.83;7.30;;;4.40;99.50;;;;;;5116117;28;20024;-78
2021/11/30 02:49:05;;;;;;;14.97;7.70;;;4.40;99.60;;;;;;5115649;28;20055;-78
2021/11/30 02:51:32;;;;;;;20.90;9.33;;;4.50;99.60;;;;;;5115501;28;20024;-79
2021/11/30 02:54:00;;;;;;;20.07;8.97;;;4.50;99.70;;;;;;5115433;28;20602;-78
2021/11/30 02:56:27;;;;;;;16.23;8.93;;;4.40;99.80;;;;;;5115623;28;20038;-79
2021/11/30 02:58:54;;;;;;;19.40;8.67;;;4.40;99.90;;;;;;5116811;28;20022;-78
2021/11/30 03:01:20;;;;;;;20.20;8.77;;;4.50;99.90;;;;;;5115800;28;20035;-77
2021/11/30 03:03:46;;;;;;;18.47;8.63;;;4.50;99.90;;;;;;5117206;28;20024;-78
2021/11/30 03:06:12;;;;;;;17.70;8.33;;;4.50;99.90;;;;;;5116060;28;20076;-79
2021/11/30 03:08:40;;;;;;;17.53;8.30;;;4.50;99.90;;;;;;5116513;28;20031;-78
2021/11/30 03:11:07;;;;;;;18.17;8.63;;;4.50;99.90;;;;;;5117123;28;20027;-77
2021/11/30 03:13:33;;;;;;;16.90;8.37;;;4.50;99.90;;;;;;5116290;28;20466;-80
2021/11/30 03:15:58;;;;;;;19.60;8.43;;;4.60;99.90;;;;;;5115614;27;20067;-79
2021/11/30 03:18:24;;;;;;;13.73;7.50;;;4.60;99.90;;;;;;5114828;28;20035;-78
2021/11/30 03:20:50;;;;;;;15.10;7.47;;;4.60;99.90;;;;;;5114940;28;20385;-80
2021/11/30 03:23:16;;;;;;;13.50;7.10;;;4.60;99.90;;;;;;5097840;28;20036;-78
2021/11/30 03:25:43;;;;;;;19.60;8.00;;;4.70;99.90;;;;;;5115932;28;20498;-79
2021/11/30 03:28:12;;;;;;;17.57;7.70;;;4.70;99.90;;;;;;5098278;28;20185;-78
2021/11/30 03:30:41;;;;;;;14.67;7.73;;;4.70;99.90;;;;;;5117020;28;20019;-78
2021/11/30 03:35:53;;;;;;;12.17;6.73;;;4.70;99.90;;;;;;5118385;28;20565;-80
2021/11/30 03:38:19;;;;;;;11.77;7.07;;;4.80;99.90;;;;;;5118196;28;20051;-81
2021/11/30 03:40:45;;;;;;;13.30;6.90;;;4.80;99.90;;;;;;5101110;28;20035;-78
2021/11/30 03:43:10;;;;;;;14.57;7.30;;;4.80;99.90;;;;;;5119219;28;20390;-79
2021/11/30 03:45:36;;;;;;;13.57;7.23;;;4.80;99.90;;;;;;5101899;28;20095;-79
2021/11/30 03:48:02;;;;;;;10.37;6.57;;;4.90;99.90;;;;;;5102742;28;20035;-82
2021/11/30 03:50:28;;;;;;;11.53;7.10;;;4.90;99.90;;;;;;5119457;28;20040;-80
2021/11/30 03:52:53;;;;;;;11.73;7.07;;;4.90;99.90;;;;;;5086157;28;20034;-83
2021/11/30 03:55:19;;;;;;;13.20;6.93;;;4.90;99.90;;;;;;5122978;28;20101;-80
2021/11/30 03:57:45;;;;;;;11.67;7.23;;;5.00;99.90;;;;;;5126024;28;20379;-80
2021/11/30 04:00:11;;;;;;;9.87;6.77;;;5.00;99.90;;;;;;5109147;28;20034;-78
2021/11/30 04:02:38;;;;;;;10.50;7.37;;;5.00;99.90;;;;;;5128811;28;20034;-80
2021/11/30 04:05:07;;;;;;;11.03;6.80;;;5.10;99.90;;;;;;5112036;28;20027;-79
2021/11/30 04:07:33;;;;;;;10.60;7.60;;;5.10;99.90;;;;;;5127145;28;20016;-79
2021/11/30 04:09:59;;;;;;;9.80;6.80;;;5.10;99.90;;;;;;5110736;28;20031;-80
2021/11/30 04:12:25;;;;;;;11.17;6.93;;;5.10;99.90;;;;;;5131194;28;20083;-80
2021/11/30 04:14:51;;;;;;;10.47;7.40;;;5.10;99.90;;;;;;5128987;28;20019;-79
2021/11/30 04:17:16;;;;;;;8.97;7.30;;;5.20;99.90;;;;;;5130965;28;20020;-79
2021/11/30 04:19:42;;;;;;;8.77;7.40;;;5.20;99.90;;;;;;5131909;28;20035;-81
2021/11/30 04:22:08;;;;;;;10.47;7.93;;;5.20;99.90;;;;;;5127580;28;20057;-81
2021/11/30 04:24:33;;;;;;;9.40;7.50;;;5.20;99.90;;;;;;5124224;28;20031;-78
2021/11/30 04:26:59;;;;;;;12.23;7.93;;;5.30;99.90;;;;;;5090954;28;20028;-80
2021/11/30 04:29:25;;;;;;;10.33;8.20;;;5.30;99.90;;;;;;5125706;28;20045;-79
2021/11/30 04:31:50;;;;;;;10.90;8.37;;;5.30;99.90;;;;;;5126789;28;20054;-79
2021/11/30 04:34:17;;;;;;;9.73;8.63;;;5.40;99.90;;;;;;5125105;28;20028;-77
2021/11/30 04:36:43;;;;;;;12.60;8.63;;;5.40;99.90;;;;;;5127411;28;20056;-79
2021/11/30 04:39:08;;;;;;;12.70;9.17;;;5.40;99.90;;;;;;5128784;28;20046;-78
2021/11/30 04:41:34;;;;;;;10.23;8.80;;;5.50;99.90;;;;;;5126214;28;20176;-81
2021/11/30 04:44:00;;;;;;;13.73;8.53;;;5.50;99.90;;;;;;5127354;28;20094;-82
2021/11/30 04:46:39;;;;;;;10.93;9.07;;;5.60;99.90;;;;;;5127520;28;20032;-79
2021/11/30 04:49:12;;;;;;;10.80;8.43;;;5.60;99.90;;;;;;5124748;28;20020;-80
2021/11/30 04:51:38;;;;;;;;;;;5.70;99.90;;;;;;5126329;28;20050;-79
2021/11/30 04:54:03;;;;;;;11.43;9.10;;;5.80;99.90;;;;;;5117110;28;19904;-79
2021/11/30 04:56:29;;;;;;;10.90;8.70;;;5.80;99.90;;;;;;5115349;28;20058;-78
2021/11/30 04:58:55;;;;;;;12.47;9.50;;;5.80;99.90;;;;;;5115623;28;20024;-82
2021/11/30 05:01:21;;;;;;;11.10;9.40;;;5.80;99.90;;;;;;5116329;28;20026;-78
2021/11/30 05:03:48;;;;;;;9.83;8.83;;;5.90;99.90;;;;;;5119373;28;20051;-80
2021/11/30 05:06:14;;;;;;;10.23;9.07;;;5.90;99.90;;;;;;5119066;28;20495;-79
2021/11/30 05:08:40;;;;;;;11.20;9.23;;;6.00;99.90;;;;;;5097921;28;20028;-79
2021/11/30 05:11:06;;;;;;;11.23;9.13;;;6.10;99.90;;;;;;5115816;28;20110;-79
2021/11/30 05:13:33;;;;;;;9.70;8.63;;;6.20;99.90;;;;;;5115696;28;20085;-79
2021/11/30 05:16:00;;;;;;;8.27;7.53;;;6.20;99.90;;;;;;5118962;28;20032;-80
2021/11/30 05:18:25;;;;;;;8.30;7.57;;;6.20;99.90;;;;;;5101668;28;20036;-80
2021/11/30 05:20:53;;;;;;;8.40;7.60;;;6.30;99.90;;;;;;5118460;28;20031;-79
2021/11/30 05:23:27;;;;;;;10.17;8.20;;;6.40;99.90;;;;;;5117683;28;20035;-79
2021/11/30 05:25:54;;;;;;;9.27;8.30;;;6.40;99.90;;;;;;5118109;28;20479;-79
2021/11/30 05:28:22;;;;;;;9.83;8.40;;;6.40;99.90;;;;;;5117950;28;20016;-78
2021/11/30 05:30:48;;;;;;;9.13;8.27;;;6.50;99.90;;;;;;5118627;28;20032;-79
2021/11/30 05:33:14;;;;;;;9.43;8.07;;;6.50;99.90;;;;;;5118573;28;20031;-81
2021/11/30 05:35:41;;;;;;;9.10;8.20;;;6.50;99.90;;;;;;5119655;28;20349;-79
2021/11/30 05:38:07;;;;;;;9.67;8.63;;;6.60;99.90;;;;;;5118712;28;20100;-81
2021/11/30 05:40:33;;;;;;;9.07;8.17;;;6.60;99.90;;;;;;5120459;28;20031;-80
2021/11/30 05:42:59;;;;;;;8.73;7.93;;;6.60;99.90;;;;;;5102037;28;20066;-80
2021/11/30 05:45:25;;;;;;;8.53;7.83;;;6.60;99.90;;;;;;5103135;28;20396;-80
2021/11/30 05:47:51;;;;;;;9.10;8.30;;;6.60;99.90;;;;;;5120683;28;20028;-79
2021/11/30 05:50:17;;;;;;;9.30;8.33;;;6.70;99.90;;;;;;5102483;28;20054;-80
2021/11/30 05:52:43;;;;;;;9.33;8.53;;;6.70;99.90;;;;;;5125500;28;20023;-81
2021/11/30 05:55:09;;;;;;;9.87;8.97;;;6.70;99.90;;;;;;5132630;28;20030;-82
2021/11/30 05:57:36;;;;;;;9.20;8.40;;;6.80;99.90;;;;;;5134412;28;20018;-80
2021/11/30 06:00:02;;;;;;;9.50;8.60;;;6.80;99.90;;;;;;5135554;28;20032;-79
2021/11/30 06:02:30;;;;;;;10.07;9.17;;;6.80;99.90;;;;;;5136247;28;20024;-81
2021/11/30 06:04:56;;;;;;;9.10;8.30;;;6.90;99.90;;;;;;5137280;28;20050;-81
2021/11/30 06:07:22;;;;;;;10.53;9.47;;;6.90;99.90;;;;;;5139883;28;20024;-81
2021/11/30 06:09:48;;;;;;;10.23;9.23;;;6.90;99.90;;;;;;5139615;28;20006;-79
2021/11/30 06:12:14;;;;;;;10.53;9.53;;;6.90;99.90;;;;;;5128651;28;20473;-81
2021/11/30 06:14:41;;;;;;;9.27;8.47;;;7.00;99.90;;;;;;5123699;28;20505;-80
2021/11/30 06:17:09;;;;;;;11.23;9.57;;;7.00;99.90;;;;;;5122088;28;20032;-80
2021/11/30 06:19:35;;;;;;;11.47;10.37;;;7.00;99.90;;;;;;5102070;28;20051;-79
2021/11/30 06:22:01;;;;;;;11.50;10.17;;;7.10;99.90;;;;;;5119408;28;20031;-81
2021/11/30 06:24:27;;;;;;;9.63;8.73;;;7.10;99.90;;;;;;5118523;28;20028;-79
2021/11/30 06:26:53;;;;;;;10.37;9.43;;;7.20;99.90;;;;;;5101471;28;20023;-79
2021/11/30 06:29:18;;;;;;;10.53;9.17;;;7.20;99.90;;;;;;5120299;28;20164;-79
2021/11/30 06:31:45;;;;;;;10.43;9.47;;;7.20;99.90;;;;;;5120556;28;20479;-80
2021/11/30 06:34:11;;;;;;;9.60;8.80;;;7.20;99.90;;;;;;5120506;28;20116;-81
2021/11/30 06:36:37;;;;;;;10.37;9.47;;;7.20;99.90;;;;;;5121224;28;20463;-78
2021/11/30 06:39:03;;;;;;;10.23;9.30;;;7.20;99.90;;;;;;5122033;28;20050;-78
2021/11/30 06:41:29;;;;;;;10.60;9.70;;;7.30;99.90;;;;;;5120766;28;20024;-79
2021/11/30 06:43:55;;;;;;;10.10;9.20;;;7.30;99.90;;;;;;5105587;28;20179;-79
2021/11/30 06:46:20;;;;;;;9.77;8.97;;;7.30;99.90;;;;;;5116657;28;20427;-79
2021/11/30 06:48:46;;;;;;;11.10;10.10;;;7.40;99.90;;;;;;5115027;28;20106;-79
2021/11/30 06:51:13;;;;;;;11.07;9.97;;;7.40;99.90;;;;;;5115038;28;20032;-79
2021/11/30 06:53:39;;;;;;;11.00;9.93;;;7.40;99.90;;;;;;5115290;28;20059;-78
2021/11/30 06:56:06;;;;;;;10.77;9.70;;;7.40;99.90;;;;;;5115756;28;20039;-79
2021/11/30 06:58:31;;;;;;;10.90;9.80;;;7.40;99.90;;;;;;5115237;28;20028;-79
2021/11/30 07:00:57;;;;;;;10.00;9.10;;;7.50;99.90;;;;;;5099003;28;20169;-78
2021/11/30 07:03:23;;;;;;;10.23;9.23;;;7.50;99.90;;;;;;5115900;28;20490;-78
2021/11/30 07:05:56;;;;;;;10.07;9.17;;;7.50;99.90;;;;;;5115183;28;20031;-77
2021/11/30 07:08:34;;;;;;;;;;;7.60;99.90;;;;;;5115772;28;20076;-80
2021/11/30 07:11:07;;;;;;;9.57;8.67;;;7.60;99.90;;;;;;5116579;28;19904;-78
2021/11/30 07:13:35;;;;;;;;;;;7.60;99.90;;;;;;5099727;28;20027;-77
2021/11/30 07:16:05;;;;;;;9.13;8.33;;;7.60;99.90;;;;;;5114683;28;19958;-79
2021/11/30 07:18:33;;;;;;;9.90;9.00;;;7.60;99.90;;;;;;5115873;27;20037;-77
2021/11/30 07:21:00;;;;;;;10.00;9.10;;;7.60;99.90;;;;;;5116557;28;20023;-77
2021/11/30 07:23:26;;;;;;;9.83;8.87;;;7.60;99.90;;;;;;5115700;28;20040;-78
2021/11/30 07:25:53;;;;;;;10.33;9.33;;;7.60;99.90;;;;;;5097993;28;20054;-77
2021/11/30 07:28:30;;;;;;;10.37;9.37;;;7.60;99.90;;;;;;5115533;28;20024;-78
2021/11/30 07:31:10;;;;;;;12.37;10.90;;;7.60;99.90;;;;;;5116000;28;20051;-78
2021/11/30 07:33:38;;;;;;;9.40;8.17;;;7.70;99.90;;;;;;5114944;28;20110;-79
2021/11/30 07:36:05;;;;;;;8.53;7.73;;;7.70;99.90;;;;;;5080562;28;20024;-79
2021/11/30 07:38:31;;;;;;;9.93;9.03;;;7.70;99.90;;;;;;5095784;28;20052;-80
2021/11/30 07:40:58;;;;;;;9.77;8.87;;;7.70;99.90;;;;;;5114524;28;20122;-78
2021/11/30 07:43:23;;;;;;;9.30;8.50;;;7.70;99.90;;;;;;5114393;28;20028;-79
2021/11/30 07:45:49;;;;;;;9.40;8.57;;;7.70;99.90;;;;;;5097378;28;20039;-79
2021/11/30 07:48:17;;;;;;;9.80;8.90;;;7.70;99.90;;;;;;5115090;28;20036;-78
2021/11/30 07:50:46;;;;;;;13.67;11.27;;;7.70;99.90;;;;;;5097206;28;20055;-79
2021/11/30 07:53:12;;;;;;;10.07;9.17;;;7.80;99.90;;;;;;5114129;28;20035;-82
2021/11/30 07:55:38;;;;;;;9.33;8.43;;;7.80;99.90;;;;;;5097111;28;20086;-78
2021/11/30 07:58:04;;;;;;;9.67;8.77;;;7.80;99.90;;;;;;5113877;28;20087;-79
2021/11/30 08:00:30;;;;;;;9.67;8.33;;;7.80;99.90;;;;;;5113586;28;20472;-79
2021/11/30 08:02:56;;;;;;;9.37;8.50;;;7.80;99.90;;;;;;5112997;28;20051;-81
2021/11/30 08:05:22;;;;;;;11.63;10.37;;;7.80;99.90;;;;;;5114377;28;20026;-80
2021/11/30 08:07:48;;;;;;;11.97;9.40;;;7.80;99.90;;;;;;5096500;28;20091;-79
2021/11/30 08:10:17;;;;;;;10.50;9.50;;;7.80;99.90;;;;;;5113767;28;20048;-78
2021/11/30 08:12:44;;;;;;;11.07;9.97;;;7.80;99.90;;;;;;5115065;28;20483;-79
2021/11/30 08:15:12;;;;;;;12.93;11.37;;;7.90;99.90;;;;;;5096700;28;20330;-80
2021/11/30 08:17:38;;;;;;;11.83;9.90;;;8.00;99.90;;;;;;5114011;28;20023;-83
2021/11/30 08:20:05;;;;;;;13.90;11.53;;;8.00;99.90;;;;;;5114535;28;20439;-79
2021/11/30 08:22:31;;;;;;;11.27;10.07;;;8.00;99.90;;;;;;5114490;28;20034;-80
2021/11/30 08:24:56;;;;;;;11.10;10.00;;;8.10;99.90;;;;;;5113076;28;20028;-79
2021/11/30 08:27:22;;;;;;;11.47;10.30;;;8.10;99.90;;;;;;5079441;28;20161;-79
2021/11/30 08:29:50;;;;;;;10.00;9.00;;;8.10;99.90;;;;;;5079955;28;20084;-79
2021/11/30 08:32:19;;;;;;;10.30;9.30;;;8.10;99.90;;;;;;5113660;28;20028;-79
2021/11/30 08:34:46;;;;;;;11.00;9.90;;;8.20;99.90;;;;;;5099185;28;20035;-79
2021/11/30 08:37:11;;;;;;;12.20;10.90;;;8.20;99.90;;;;;;5114262;28;20135;-80
2021/11/30 08:39:38;;;;;;;12.40;11.20;;;8.20;99.90;;;;;;5096122;28;20110;-78
2021/11/30 08:42:08;;;;;;;20.67;12.83;;;8.20;99.90;;;;;;5114155;28;20055;-79
2021/11/30 08:44:34;;;;;;;21.40;13.63;;;8.20;99.90;;;;;;5120655;28;20068;-80
2021/11/30 08:46:59;;;;;;;16.77;12.20;;;8.20;99.90;;;;;;5119620;28;20074;-79
2021/11/30 08:49:27;;;;;;;12.13;10.67;;;8.30;99.90;;;;;;5095828;28;20028;-80
2021/11/30 08:51:54;;;;;;;11.53;9.87;;;8.30;99.90;;;;;;5112804;28;20019;-79
2021/11/30 08:54:19;;;;;;;11.13;9.90;;;8.30;99.90;;;;;;5112950;28;20045;-80
2021/11/30 08:56:45;;;;;;;11.27;10.07;;;8.30;99.90;;;;;;5096113;28;20455;-79
2021/11/30 08:59:12;;;;;;;14.00;12.07;;;8.40;99.90;;;;;;5112209;28;20024;-79
2021/11/30 09:01:39;;;;;;;12.77;11.47;;;8.40;99.90;;;;;;5112256;28;20024;-79
2021/11/30 09:04:04;;;;;;;13.47;11.73;;;8.40;99.90;;;;;;5112176;28;20032;-79
2021/11/30 09:06:30;;;;;;;12.53;10.17;;;8.50;99.90;;;;;;5095122;28;20028;-79
2021/11/30 09:08:56;;;;;;;12.47;11.27;;;8.50;99.90;;;;;;5095433;28;20449;-81
2021/11/30 09:11:23;;;;;;;10.57;9.47;;;8.50;99.90;;;;;;5112364;28;20110;-80
2021/11/30 09:13:49;;;;;;;10.43;9.40;;;8.60;99.90;;;;;;5114102;28;20053;-79
2021/11/30 09:16:16;;;;;;;11.73;10.17;;;8.60;99.90;;;;;;5112167;28;20035;-79
2021/11/30 09:18:41;;;;;;;11.60;10.40;;;8.60;99.90;;;;;;5095874;28;20119;-79
2021/11/30 09:21:07;;;;;;;11.23;9.13;;;8.60;99.90;;;;;;5114069;28;20028;-76
2021/11/30 09:23:33;;;;;;;11.13;10.03;;;8.70;99.90;;;;;;5112290;28;20035;-78
2021/11/30 09:25:59;;;;;;;11.03;9.93;;;8.70;99.90;;;;;;5096424;28;20510;-77
2021/11/30 09:28:25;;;;;;;10.27;8.77;;;8.70;99.90;;;;;;5078988;28;20348;-78
2021/11/30 09:30:51;;;;;;;9.57;8.67;;;8.80;99.90;;;;;;5113249;28;20027;-78
2021/11/30 09:33:17;;;;;;;9.57;8.57;;;8.80;99.90;;;;;;5113513;28;20019;-79
2021/11/30 09:35:43;;;;;;;12.70;10.77;;;8.80;99.90;;;;;;5112514;28;20102;-79
2021/11/30 09:38:09;;;;;;;9.60;8.60;;;8.80;99.90;;;;;;5095624;28;20044;-78
2021/11/30 09:40:37;;;;;;;8.07;7.37;;;8.90;99.90;;;;;;5112054;28;20086;-79
2021/11/30 09:43:03;;;;;;;7.67;6.97;;;8.90;99.90;;;;;;5112171;28;20062;-78
2021/11/30 09:45:33;;;;;;;7.87;7.03;;;8.90;99.90;;;;;;5095511;28;20475;-79
2021/11/30 09:47:59;;;;;;;8.90;7.63;;;8.90;99.90;;;;;;5114375;28;20034;-80
2021/11/30 09:50:25;;;;;;;10.63;9.20;;;8.80;99.90;;;;;;5095545;28;20031;-80
2021/11/30 09:52:55;;;;;;;10.40;8.17;;;8.90;99.90;;;;;;5094874;28;20066;-79
2021/11/30 09:55:23;;;;;;;8.43;7.63;;;8.90;99.90;;;;;;5111957;28;20030;-79
2021/11/30 09:57:52;;;;;;;7.60;6.63;;;8.90;99.90;;;;;;5112002;28;20402;-79
2021/11/30 10:00:21;;;;;;;9.93;8.93;;;8.90;99.90;;;;;;5112790;28;20493;-79
2021/11/30 10:02:47;;;;;;;7.23;6.63;;;8.90;99.90;;;;;;5116756;28;20467;-81
2021/11/30 10:05:13;;;;;;;7.77;7.10;;;9.00;99.90;;;;;;5115696;28;20020;-80
2021/11/30 10:07:44;;;;;;;8.13;7.33;;;9.00;99.90;;;;;;5098577;28;20031;-78
2021/11/30 10:10:14;;;;;;;7.53;6.80;;;9.00;99.90;;;;;;5117380;28;20027;-80
2021/11/30 10:12:41;;;;;;;7.00;6.30;;;9.10;99.90;;;;;;5116029;28;20418;-79
2021/11/30 10:15:09;;;;;;;7.77;7.07;;;9.10;99.90;;;;;;5115584;28;20016;-80
2021/11/30 10:17:36;;;;;;;8.53;7.17;;;9.10;99.90;;;;;;5099023;28;20023;-81
2021/11/30 10:20:14;;;;;;;7.33;6.63;;;9.10;99.90;;;;;;5115867;28;20019;-79
2021/11/30 10:22:52;;;;;;;7.57;6.87;;;9.20;99.90;;;;;;5115809;28;20043;-79
2021/11/30 10:25:27;;;;;;;8.07;7.27;;;9.20;99.90;;;;;;5117340;28;20024;-81
2021/11/30 10:27:59;;;;;;;7.23;6.53;;;9.20;99.90;;;;;;5115935;28;20023;-79
2021/11/30 10:30:31;;;;;;;7.23;6.53;;;9.20;99.90;;;;;;5116860;28;20110;-80
2021/11/30 10:33:02;;;;;;;7.17;6.57;;;9.20;99.90;;;;;;5116290;28;20019;-80
2021/11/30 10:35:29;;;;;;;6.80;6.10;;;9.20;99.90;;;;;;5116916;28;20028;-81
2021/11/30 10:37:57;;;;;;;6.77;6.17;;;9.20;99.90;;;;;;5098409;28;20182;-81
2021/11/30 10:40:26;;;;;;;6.90;6.30;;;9.30;99.90;;;;;;5116797;28;20455;-80
2021/11/30 10:42:57;;;;;;;7.20;6.60;;;9.30;99.90;;;;;;5115314;28;20034;-80
2021/11/30 10:45:29;;;;;;;6.67;6.03;;;9.30;99.90;;;;;;5115310;28;20459;-79
2021/11/30 10:48:28;;;;;;;6.10;5.60;;;9.30;99.90;;;;;;5116196;28;20077;-80
2021/11/30 10:50:57;;;;;;;6.57;6.07;;;9.40;99.90;;;;;;5116086;28;20049;-79
2021/11/30 10:53:31;;;;;;;6.97;6.37;;;9.40;99.90;;;;;;5115464;28;20024;-79
2021/11/30 10:56:07;;;;;;;6.13;5.43;;;9.40;99.90;;;;;;5114800;28;20065;-80
2021/11/30 10:58:36;;;;;;;5.80;5.30;;;9.50;99.90;;;;;;5098732;28;20023;-80
2021/11/30 11:01:10;;;;;;;11.50;10.27;;;9.40;99.90;;;;;;5115282;28;20039;-79
2021/11/30 11:03:36;;;;;;;8.80;8.10;;;9.50;99.90;;;;;;5115644;28;20352;-80
2021/11/30 11:08:50;;;;;;;6.17;5.67;;;9.60;99.90;;;;;;5116545;28;20038;-80
2021/11/30 11:11:21;;;;;;;6.57;6.07;;;9.60;99.90;;;;;;5114184;28;20478;-80
2021/11/30 11:13:48;;;;;;;6.10;5.60;;;9.50;99.90;;;;;;5115716;28;20023;-79
2021/11/30 11:16:33;;;;;;;7.07;6.40;;;9.60;99.90;;;;;;5115591;28;20020;-81
2021/11/30 11:19:08;;;;;;;6.37;5.87;;;9.60;99.90;;;;;;5097644;28;20503;-79
2021/11/30 11:21:36;;;;;;;6.00;5.60;;;9.60;99.90;;;;;;5115656;28;20031;-80
2021/11/30 11:24:17;;;;;;;6.20;5.67;;;9.50;99.90;;;;;;5114181;28;20045;-80
2021/11/30 11:26:51;;;;;;;7.57;6.27;;;9.60;99.90;;;;;;5114221;28;20031;-81
2021/11/30 11:29:20;;;;;;;6.57;6.03;;;9.60;99.90;;;;;;5115101;28;20027;-81
2021/11/30 11:31:58;;;;;;;6.83;6.23;;;9.60;99.90;;;;;;5113816;28;20519;-80
2021/11/30 11:34:32;;;;;;;6.77;6.17;;;9.50;99.90;;;;;;5114442;28;20436;-80
2021/11/30 11:37:00;;;;;;;6.70;6.20;;;9.50;99.90;;;;;;5113724;28;20064;-79
2021/11/30 11:39:27;;;;;;;7.13;6.47;;;9.50;99.90;;;;;;5114541;28;20039;-79
2021/11/30 11:41:59;;;;;;;6.90;6.30;;;9.60;99.90;;;;;;5113555;28;20057;-80
2021/11/30 11:44:25;;;;;;;6.10;5.47;;;9.60;99.90;;;;;;5113667;28;20028;-82
2021/11/30 11:47:02;;;;;;;6.33;5.77;;;9.60;99.90;;;;;;5097119;28;20032;-81
2021/11/30 11:49:34;;;;;;;6.67;6.07;;;9.60;99.90;;;;;;5115798;28;20012;-81
2021/11/30 11:52:00;;;;;;;6.87;6.17;;;9.60;99.90;;;;;;5114440;28;20031;-80
2021/11/30 11:54:29;;;;;;;6.50;5.90;;;9.70;99.90;;;;;;5113828;28;20031;-80
2021/11/30 11:57:09;;;;;;;6.60;5.60;;;9.70;99.90;;;;;;5113571;28;20527;-82
2021/11/30 11:59:37;;;;;;;6.10;5.50;;;9.70;99.90;;;;;;5114826;28;20456;-80
2021/11/30 12:02:25;;;;;;;5.70;5.20;;;9.70;99.90;;;;;;5115562;28;20055;-81
2021/11/30 12:04:55;;;;;;;5.83;5.33;;;9.70;99.90;;;;;;5118109;28;20043;-81
2021/11/30 12:07:23;;;;;;;8.23;6.10;;;9.70;99.90;;;;;;5116970;28;20024;-81
2021/11/30 12:10:09;;;;;;;5.93;5.50;;;9.70;99.90;;;;;;5114599;28;20110;-81
2021/11/30 12:12:35;;;;;;;7.13;6.40;;;9.70;99.90;;;;;;5100649;28;20073;-81
2021/11/30 12:15:04;;;;;;;9.40;6.70;;;9.70;99.90;;;;;;5097143;28;20035;-81
2021/11/30 12:17:30;;;;;;;6.93;6.33;;;9.70;99.90;;;;;;5113829;28;20017;-82
2021/11/30 12:20:00;;;;;;;7.47;6.70;;;9.70;99.90;;;;;;5096881;28;20100;-80
2021/11/30 12:22:47;;;;;;;7.13;6.43;;;9.70;99.90;;;;;;5113363;28;20046;-80
2021/11/30 12:25:26;;;;;;;7.40;6.60;;;9.80;99.90;;;;;;5113290;28;20023;-81
2021/11/30 12:27:52;;;;;;;7.03;6.33;;;9.70;99.90;;;;;;5115157;28;20027;-81
2021/11/30 12:30:39;;;;;;;6.33;5.50;;;9.80;99.90;;;;;;5114690;28;20024;-81
2021/11/30 12:33:12;;;;;;;5.97;5.47;;;9.80;99.90;;;;;;5113844;28;20027;-82
2021/11/30 12:35:48;;;;;;;6.30;5.70;;;9.80;99.90;;;;;;5113530;28;20030;-81
2021/11/30 12:38:21;;;;;;;6.70;6.10;;;9.90;99.90;;;;;;5112723;28;20499;-80
2021/11/30 12:40:49;;;;;;;;;;;9.80;99.90;;;;;;5114776;28;20081;-81
2021/11/30 12:43:19;;;;;;;6.67;6.00;;;9.80;99.90;;;;;;5113018;28;19961;-80
2021/11/30 12:45:52;;;;;;;7.17;6.57;;;9.90;99.90;;;;;;5114228;28;20422;-78
2021/11/30 12:48:31;;;;;;;7.40;6.70;;;9.90;99.90;;;;;;5113167;28;20024;-80
2021/11/30 12:51:22;;;;;;;8.50;7.03;;;9.90;99.90;;;;;;5113694;28;20061;-81
2021/11/30 12:53:49;;;;;;;7.80;7.10;;;9.90;99.90;;;;;;5112777;28;20078;-80
2021/11/30 12:56:45;;;;;;;8.13;7.33;;;9.90;99.90;;;;;;5113094;28;20524;-79
2021/11/30 12:59:12;;;;;;;7.73;7.03;;;9.90;99.90;;;;;;5112669;28;20030;-80
2021/11/30 13:01:39;;;;;;;8.03;7.23;;;9.90;99.90;;;;;;5112231;28;20114;-80
2021/11/30 13:04:29;;;;;;;9.33;8.10;;;9.90;99.90;;;;;;5111747;28;20046;-81